Time,TemperatureF,DewpointF,PressureIn,WindDirection,WindDirectionDegrees,WindSpeedMPH,WindSpeedGustMPH,Humidity,HourlyPrecipIn,Conditions,Clouds,dailyrainin,SoftwareType,DateUTC
2013-07-11 00:00:00,58.8,54.0,29.83,ESE,112,2.7,-999.0,84,-99.99,,,0.00,Acu-Link.com,2013-07-11 07:00:00,
2013-07-11 00:15:00,58.8,54.0,29.84,ESE,112,0.0,-999.0,84,-99.99,,,0.00,Acu-Link.com,2013-07-11 07:15:00,
2013-07-11 00:30:00,59.0,54.8,29.84,ESE,112,2.7,-999.0,86,-99.99,,,0.00,Acu-Link.com,2013-07-11 07:30:00,
2013-07-11 00:45:00,58.8,54.6,29.85,ESE,112,0.0,-999.0,86,-99.99,,,0.00,Acu-Link.com,2013-07-11 07:45:00,
2013-07-11 01:01:00,58.6,55.1,29.84,ESE,112,4.7,-999.0,88,-99.99,,,0.00,Acu-Link.com,2013-07-11 08:01:00,
2013-07-11 01:16:00,58.5,55.0,29.84,ESE,112,2.7,-999.0,88,-99.99,,,0.00,Acu-Link.com,2013-07-11 08:16:00,
2013-07-11 01:31:00,58.3,54.8,29.84,ESE,112,4.7,-999.0,88,-99.99,,,0.00,Acu-Link.com,2013-07-11 08:31:00,
2013-07-11 01:47:00,58.1,54.2,29.84,ESE,112,3.2,-999.0,87,-99.99,,,0.00,Acu-Link.com,2013-07-11 08:47:00,
2013-07-11 02:02:00,58.3,54.8,29.84,ESE,112,2.2,-999.0,88,-99.99,,,0.00,Acu-Link.com,2013-07-11 09:02:00,
2013-07-11 02:17:00,58.3,54.4,29.83,ESE,112,2.2,-999.0,87,-99.99,,,0.00,Acu-Link.com,2013-07-11 09:17:00,
2013-07-11 02:32:00,58.1,54.2,29.84,ESE,112,1.1,-999.0,87,-99.99,,,0.00,Acu-Link.com,2013-07-11 09:32:00,
2013-07-11 02:47:00,58.1,54.2,29.83,ESE,112,3.2,-999.0,87,-99.99,,,0.00,Acu-Link.com,2013-07-11 09:47:00,
2013-07-11 03:02:00,58.5,54.6,29.83,ESE,112,2.2,-999.0,87,-99.99,,,0.00,Acu-Link.com,2013-07-11 10:02:00,
2013-07-11 03:18:00,58.1,54.2,29.84,ESE,112,4.7,-999.0,87,-99.99,,,0.00,Acu-Link.com,2013-07-11 10:18:00,
2013-07-11 03:33:00,58.1,54.6,29.84,ESE,112,3.2,-999.0,88,-99.99,,,0.00,Acu-Link.com,2013-07-11 10:33:00,
2013-07-11 03:48:00,58.3,54.1,29.83,ESE,112,3.2,-999.0,86,-99.99,,,0.00,Acu-Link.com,2013-07-11 10:48:00,
2013-07-11 04:03:00,58.1,54.2,29.83,ESE,112,2.2,-999.0,87,-99.99,,,0.00,Acu-Link.com,2013-07-11 11:03:00,
2013-07-11 04:18:00,58.1,54.2,29.83,ESE,112,2.2,-999.0,87,-99.99,,,0.00,Acu-Link.com,2013-07-11 11:18:00,
2013-07-11 04:33:00,58.1,54.2,29.85,ESE,112,3.2,-999.0,87,-99.99,,,0.00,Acu-Link.com,2013-07-11 11:33:00,
2013-07-11 04:49:00,58.1,53.9,29.85,ESE,112,2.7,-999.0,86,-99.99,,,0.00,Acu-Link.com,2013-07-11 11:49:00,
2013-07-11 05:04:00,57.9,53.7,29.85,ESE,112,2.7,-999.0,86,-99.99,,,0.00,Acu-Link.com,2013-07-11 12:04:00,
2013-07-11 05:19:00,58.3,54.1,29.84,ESE,112,1.7,-999.0,86,-99.99,,,0.00,Acu-Link.com,2013-07-11 12:19:00,
2013-07-11 05:35:00,58.1,53.9,29.86,ESE,112,3.2,-999.0,86,-99.99,,,0.00,Acu-Link.com,2013-07-11 12:35:00,
2013-07-11 05:50:00,58.1,53.9,29.85,ESE,112,1.7,-999.0,86,-99.99,,,0.00,Acu-Link.com,2013-07-11 12:50:00,
2013-07-11 06:05:00,58.1,53.9,29.86,ESE,112,0.0,-999.0,86,-99.99,,,0.00,Acu-Link.com,2013-07-11 13:05:00,
2013-07-11 06:21:00,58.3,54.1,29.86,ESE,112,0.0,-999.0,86,-99.99,,,0.00,Acu-Link.com,2013-07-11 13:21:00,
2013-07-11 06:36:00,57.9,51.8,29.86,ESE,112,1.7,-999.0,80,-99.99,,,0.00,Acu-Link.com,2013-07-11 13:36:00,
2013-07-11 06:51:00,58.1,51.6,29.87,ESE,112,2.2,-999.0,79,-99.99,,,0.00,Acu-Link.com,2013-07-11 13:51:00,
2013-07-11 07:07:00,58.5,51.7,29.86,ESE,112,1.7,-999.0,78,-99.99,,,0.00,Acu-Link.com,2013-07-11 14:07:00,
2013-07-11 07:22:00,59.4,52.5,29.87,ESE,112,2.7,-999.0,78,-99.99,,,0.00,Acu-Link.com,2013-07-11 14:22:00,
2013-07-11 07:37:00,60.1,53.2,29.87,ESE,112,0.0,-999.0,78,-99.99,,,0.00,Acu-Link.com,2013-07-11 14:37:00,
2013-07-11 07:52:00,59.2,53.0,29.86,ESE,112,3.2,-999.0,80,-99.99,,,0.00,Acu-Link.com,2013-07-11 14:52:00,
2013-07-11 08:23:00,61.3,53.7,29.87,ESE,112,0.0,-999.0,76,-99.99,,,0.00,Acu-Link.com,2013-07-11 15:23:00,
2013-07-11 08:38:00,61.0,53.7,29.86,ESE,112,1.7,-999.0,77,-99.99,,,0.00,Acu-Link.com,2013-07-11 15:38:00,
2013-07-11 08:53:00,62.6,53.8,29.87,ESE,112,2.7,-999.0,73,-99.99,,,0.00,Acu-Link.com,2013-07-11 15:53:00,
2013-07-11 09:09:00,64.4,54.4,29.89,ESE,112,4.7,-999.0,70,-99.99,,,0.00,Acu-Link.com,2013-07-11 16:09:00,
2013-07-11 09:39:00,68.9,55.8,29.88,ESE,112,0.0,-999.0,63,-99.99,,,0.00,Acu-Link.com,2013-07-11 16:39:00,
2013-07-11 09:55:00,68.9,55.8,29.89,NNW,337,3.7,-999.0,63,-99.99,,,0.00,Acu-Link.com,2013-07-11 16:55:00,
2013-07-11 10:10:00,72.7,56.6,29.89,NNW,337,2.2,-999.0,57,-99.99,,,0.00,Acu-Link.com,2013-07-11 17:10:00,
2013-07-11 10:40:00,68.9,55.8,29.88,NE,45,2.7,-999.0,63,-99.99,,,0.00,Acu-Link.com,2013-07-11 17:40:00,
2013-07-11 10:56:00,69.8,55.7,29.87,North,0,3.2,-999.0,61,-99.99,,,0.00,Acu-Link.com,2013-07-11 17:56:00,
2013-07-11 11:11:00,69.4,55.8,29.87,ESE,112,3.2,-999.0,62,-99.99,,,0.00,Acu-Link.com,2013-07-11 18:11:00,
2013-07-11 11:26:00,70.0,55.9,29.87,North,0,4.7,-999.0,61,-99.99,,,0.00,Acu-Link.com,2013-07-11 18:26:00,
2013-07-11 11:41:00,71.2,56.1,29.87,WNW,292,5.8,-999.0,59,-99.99,,,0.00,Acu-Link.com,2013-07-11 18:41:00,
2013-07-11 12:42:00,71.4,56.8,29.87,North,0,2.7,-999.0,60,-99.99,,,0.00,Acu-Link.com,2013-07-11 19:42:00,
2013-07-11 12:57:00,70.5,56.8,29.89,NNE,22,4.2,-999.0,62,-99.99,,,0.00,Acu-Link.com,2013-07-11 19:57:00,
2013-07-11 13:28:00,74.1,57.4,29.87,North,0,1.1,-999.0,56,-99.99,,,0.00,Acu-Link.com,2013-07-11 20:28:00,
2013-07-11 13:43:00,73.4,57.7,29.88,North,0,5.8,-999.0,58,-99.99,,,0.00,Acu-Link.com,2013-07-11 20:43:00,
2013-07-11 14:13:00,74.1,57.4,29.86,NNW,337,8.3,-999.0,56,-99.99,,,0.00,Acu-Link.com,2013-07-11 21:13:00,
2013-07-11 14:44:00,79.0,58.2,29.85,NNW,337,5.3,-999.0,49,-99.99,,,0.00,Acu-Link.com,2013-07-11 21:44:00,
2013-07-11 14:59:00,76.3,57.4,29.85,ENE,67,4.2,-999.0,52,-99.99,,,0.00,Acu-Link.com,2013-07-11 21:59:00,
2013-07-11 15:14:00,79.7,57.7,29.84,NE,45,4.2,-999.0,47,-99.99,,,0.00,Acu-Link.com,2013-07-11 22:14:00,
2013-07-11 15:45:00,78.8,57.4,29.83,SSE,157,3.2,-999.0,48,-99.99,,,0.00,Acu-Link.com,2013-07-11 22:45:00,
2013-07-11 16:00:00,76.6,57.1,29.84,ESE,112,6.3,-999.0,51,-99.99,,,0.00,Acu-Link.com,2013-07-11 23:00:00,
2013-07-11 16:15:00,77.7,57.0,29.84,ESE,112,3.2,-999.0,49,-99.99,,,0.00,Acu-Link.com,2013-07-11 23:15:00,
2013-07-11 16:31:00,74.5,56.7,29.85,SW,225,1.7,-999.0,54,-99.99,,,0.00,Acu-Link.com,2013-07-11 23:31:00,
2013-07-11 16:46:00,79.9,56.0,29.85,SSW,202,2.2,-999.0,44,-99.99,,,0.00,Acu-Link.com,2013-07-11 23:46:00,
2013-07-11 17:01:00,80.2,55.0,29.84,WSW,247,5.3,-999.0,42,-99.99,,,0.00,Acu-Link.com,2013-07-12 00:01:00,
2013-07-11 17:16:00,78.3,55.2,29.85,SSE,157,2.7,-999.0,45,-99.99,,,0.00,Acu-Link.com,2013-07-12 00:16:00,
2013-07-11 17:32:00,78.6,54.2,29.84,NNW,337,5.3,-999.0,43,-99.99,,,0.00,Acu-Link.com,2013-07-12 00:32:00,
2013-07-11 17:47:00,77.5,53.8,29.83,WSW,247,5.3,-999.0,44,-99.99,,,0.00,Acu-Link.com,2013-07-12 00:47:00,
2013-07-11 18:02:00,77.5,53.8,29.83,NNW,337,2.7,-999.0,44,-99.99,,,0.00,Acu-Link.com,2013-07-12 01:02:00,
2013-07-11 18:32:00,76.6,53.7,29.84,ESE,112,3.7,-999.0,45,-99.99,,,0.00,Acu-Link.com,2013-07-12 01:32:00,
2013-07-11 19:03:00,71.4,56.8,29.85,ESE,112,6.3,-999.0,60,-99.99,,,0.00,Acu-Link.com,2013-07-12 02:03:00,
2013-07-11 19:33:00,66.7,54.6,29.84,ESE,112,6.3,-999.0,65,-99.99,,,0.00,Acu-Link.com,2013-07-12 02:33:00,
2013-07-11 19:49:00,66.0,53.9,29.84,ESE,112,5.3,-999.0,65,-99.99,,,0.00,Acu-Link.com,2013-07-12 02:49:00,
2013-07-11 20:04:00,64.6,53.8,29.84,ESE,112,2.7,-999.0,68,-99.99,,,0.00,Acu-Link.com,2013-07-12 03:04:00,
2013-07-11 20:19:00,63.3,53.0,29.84,ESE,112,5.3,-999.0,69,-99.99,,,0.00,Acu-Link.com,2013-07-12 03:19:00,
2013-07-11 20:50:00,60.8,52.1,29.85,SE,135,4.7,-999.0,73,-99.99,,,0.00,Acu-Link.com,2013-07-12 03:50:00,
2013-07-11 21:05:00,60.3,52.7,29.84,ESE,112,4.2,-999.0,76,-99.99,,,0.00,Acu-Link.com,2013-07-12 04:05:00,
2013-07-11 21:20:00,59.7,52.5,29.85,ESE,112,4.2,-999.0,77,-99.99,,,0.00,Acu-Link.com,2013-07-12 04:20:00,
2013-07-11 21:36:00,59.4,52.5,29.85,SE,135,2.2,-999.0,78,-99.99,,,0.00,Acu-Link.com,2013-07-12 04:36:00,
2013-07-11 21:51:00,58.6,52.4,29.85,SE,135,1.7,-999.0,80,-99.99,,,0.00,Acu-Link.com,2013-07-12 04:51:00,
2013-07-11 22:06:00,58.3,52.2,29.86,SE,135,2.7,-999.0,80,-99.99,,,0.00,Acu-Link.com,2013-07-12 05:06:00,
2013-07-11 22:21:00,58.5,52.7,29.87,SE,135,0.0,-999.0,81,-99.99,,,0.00,Acu-Link.com,2013-07-12 05:21:00,
2013-07-11 22:37:00,58.1,52.6,29.86,SE,135,0.0,-999.0,82,-99.99,,,0.00,Acu-Link.com,2013-07-12 05:37:00,
2013-07-11 22:52:00,58.5,53.0,29.86,SE,135,2.2,-999.0,82,-99.99,,,0.00,Acu-Link.com,2013-07-12 05:52:00,
2013-07-11 23:07:00,58.5,53.0,29.86,SE,135,1.7,-999.0,82,-99.99,,,0.00,Acu-Link.com,2013-07-12 06:07:00,
2013-07-11 23:23:00,58.3,53.2,29.86,ESE,112,4.7,-999.0,83,-99.99,,,0.00,Acu-Link.com,2013-07-12 06:23:00,
2013-07-11 23:38:00,58.3,53.5,29.86,ESE,112,3.2,-999.0,84,-99.99,,,0.00,Acu-Link.com,2013-07-12 06:38:00,
2013-07-11 23:53:00,58.3,53.8,29.87,ESE,112,4.7,-999.0,85,-99.99,,,0.00,Acu-Link.com,2013-07-12 06:53:00,